Time;durP1;ratioP1;P1;durP2;ratioP2;P2;SDS_P1;SDS_P2;PMS_P1;PMS_P2;Temp;Humidity;BMP_temperature;BMP_pressure;BME280_temperature;BME280_humidity;BME280_pressure;Samples;Min_cycle;Max_cycle;Signal;HPM_P1;HPM_P2
2022/12/08 00:01:26;;;;;;;;;74.33;57.67;;;;;;;;5046269;28;45997;-77
2022/12/08 00:03:52;;;;;;;;;70.67;55.00;;;;;;;;5048256;28;45320;-77
2022/12/08 00:11:45;;;;;;;;;68.00;55.25;;;;;;;;5050769;28;45304;-77
2022/12/08 00:14:11;;;;;;;;;76.25;57.00;;;;;;;;5060024;28;45412;-78
2022/12/08 00:16:36;;;;;;;;;76.75;56.50;;;;;;;;5052564;28;45431;-78
2022/12/08 00:19:01;;;;;;;;;71.00;54.00;;;;;;;;5053686;28;45315;-77
2022/12/08 00:21:27;;;;;;;;;76.00;54.50;;;;;;;;5040754;28;46972;-77
2022/12/08 00:23:53;;;;;;;;;67.50;53.50;;;;;;;;5036283;28;45267;-78
2022/12/08 00:26:19;;;;;;;;;71.25;54.00;;;;;;;;5049631;28;45325;-77
2022/12/08 00:28:44;;;;;;;;;69.75;53.50;;;;;;;;5055807;28;45230;-77
2022/12/08 00:31:10;;;;;;;;;72.25;54.25;;;;;;;;5040699;28;48319;-76
2022/12/08 00:33:35;;;;;;;;;67.75;52.75;;;;;;;;5056485;28;45313;-76
2022/12/08 00:36:07;;;;;;;;;66.75;53.75;;;;;;;;5053335;28;45482;-76
2022/12/08 00:38:32;;;;;;;;;71.25;54.50;;;;;;;;5042828;28;45428;-77
2022/12/08 00:40:57;;;;;;;;;69.50;54.75;;;;;;;;5047733;28;46119;-76
2022/12/08 00:43:23;;;;;;;;;72.75;52.00;;;;;;;;5052940;28;45229;-77
2022/12/08 00:45:48;;;;;;;;;72.33;55.00;;;;;;;;5051923;28;45547;-76
2022/12/08 00:48:13;;;;;;;;;75.33;56.33;;;;;;;;5035489;28;46541;-77
2022/12/08 00:50:38;;;;;;;;;77.33;59.33;;;;;;;;5032229;28;45312;-77
2022/12/08 00:53:03;;;;;;;;;71.75;56.25;;;;;;;;5029037;28;45345;-77
2022/12/08 00:55:28;;;;;;;;;66.25;53.00;;;;;;;;5032183;28;45412;-76
2022/12/08 00:57:54;;;;;;;;;73.50;55.00;;;;;;;;5021806;28;46824;-77
2022/12/08 01:00:19;;;;;;;;;68.50;54.00;;;;;;;;5033902;28;45195;-77
2022/12/08 01:02:44;;;;;;;;;60.50;51.00;;;;;;;;5023192;28;45895;-77
2022/12/08 01:05:09;;;;;;;;;69.75;50.00;;;;;;;;5034186;28;45217;-77
2022/12/08 01:07:35;;;;;;;;;67.50;54.50;;;;;;;;5029304;28;45292;-79
2022/12/08 01:10:00;;;;;;;;;62.00;50.00;;;;;;;;5033962;28;45413;-76
2022/12/08 01:12:27;;;;;;;;;66.25;53.00;;;;;;;;5026727;28;45217;-79
2022/12/08 01:14:52;;;;;;;;;65.50;48.50;;;;;;;;5024469;28;45126;-79
2022/12/08 01:17:17;;;;;;;;;60.00;45.25;;;;;;;;5024863;28;45321;-79
2022/12/08 01:19:43;;;;;;;;;69.25;53.75;;;;;;;;5027398;28;45210;-78
2022/12/08 01:22:08;;;;;;;;;64.25;52.50;;;;;;;;5029154;28;45265;-79
2022/12/08 01:24:33;;;;;;;;;70.33;56.00;;;;;;;;5030416;28;45394;-79
2022/12/08 01:26:58;;;;;;;;;71.00;53.75;;;;;;;;5032403;28;45261;-78
2022/12/08 01:29:25;;;;;;;;;67.50;53.00;;;;;;;;5029835;28;45366;-79
2022/12/08 01:31:50;;;;;;;;;71.00;53.00;;;;;;;;5035193;28;45316;-79
2022/12/08 01:34:15;;;;;;;;;70.50;55.00;;;;;;;;5032253;28;45257;-79
2022/12/08 01:36:43;;;;;;;;;62.50;45.75;;;;;;;;5029071;28;45914;-79
2022/12/08 01:39:12;;;;;;;;;70.50;54.25;;;;;;;;5032942;28;45379;-79
2022/12/08 01:41:38;;;;;;;;;64.67;53.33;;;;;;;;5037729;28;45393;-78
2022/12/08 01:44:23;;;;;;;;;69.00;52.00;;;;;;;;5036499;28;45225;-76
2022/12/08 01:46:48;;;;;;;;;69.33;54.67;;;;;;;;5029577;28;45607;-79
2022/12/08 01:49:26;;;;;;;;;72.33;55.00;;;;;;;;5044212;28;46191;-79
2022/12/08 01:51:57;;;;;;;;;72.33;58.33;;;;;;;;5045314;28;45321;-79
2022/12/08 01:54:25;;;;;;;;;76.67;60.00;;;;;;;;5029578;28;45369;-78
2022/12/08 01:56:50;;;;;;;;;73.00;58.33;;;;;;;;5052448;28;45419;-78
2022/12/08 01:59:16;;;;;;;;;77.67;59.33;;;;;;;;5051834;28;45484;-79
2022/12/08 02:01:41;;;;;;;;;67.33;53.00;;;;;;;;5047238;28;45325;-79
2022/12/08 02:04:06;;;;;;;;;80.67;59.00;;;;;;;;5046299;28;45278;-78
2022/12/08 02:06:34;;;;;;;;;72.00;54.33;;;;;;;;5044119;28;45880;-79
2022/12/08 02:09:00;;;;;;;;;74.33;57.33;;;;;;;;5048309;28;45779;-79
2022/12/08 02:11:25;;;;;;;;;76.00;55.00;;;;;;;;5048619;28;45317;-79
2022/12/08 02:13:51;;;;;;;;;81.67;63.00;;;;;;;;5049224;28;45292;-79
2022/12/08 02:16:35;;;;;;;;;76.33;59.67;;;;;;;;5052402;28;45411;-76
2022/12/08 02:19:19;;;;;;;;;81.00;60.33;;;;;;;;5044836;28;45258;-78
2022/12/08 02:21:44;;;;;;;;;78.67;58.67;;;;;;;;5036141;28;45381;-78
2022/12/08 02:24:21;;;;;;;;;73.67;54.67;;;;;;;;5052985;28;45232;-78
2022/12/08 02:26:53;;;;;;;;;69.67;53.33;;;;;;;;5051882;28;45380;-78
2022/12/08 02:29:18;;;;;;;;;75.33;54.00;;;;;;;;5054453;28;45321;-78
2022/12/08 02:32:03;;;;;;;;;82.33;58.00;;;;;;;;5048533;28;45541;-79
2022/12/08 02:34:29;;;;;;;;;73.67;55.67;;;;;;;;5049778;28;45175;-78
2022/12/08 02:36:57;;;;;;;;;74.67;54.67;;;;;;;;5038115;28;45653;-79
2022/12/08 02:39:36;;;;;;;;;70.33;53.33;;;;;;;;5053693;28;46178;-79
2022/12/08 02:42:08;;;;;;;;;70.00;52.00;;;;;;;;5054204;28;45337;-78
2022/12/08 02:44:54;;;;;;;;;73.75;54.00;;;;;;;;5053820;28;45317;-78
2022/12/08 02:47:21;;;;;;;;;67.50;51.75;;;;;;;;5055289;28;45479;-78
2022/12/08 02:49:46;;;;;;;;;65.75;51.00;;;;;;;;5042307;28;45438;-79
2022/12/08 02:52:13;;;;;;;;;68.67;53.67;;;;;;;;5046005;28;44792;-78
2022/12/08 02:54:40;;;;;;;;;62.50;49.50;;;;;;;;5027825;28;45332;-76
2022/12/08 02:57:06;;;;;;;;;64.25;51.00;;;;;;;;5047944;28;45486;-79
2022/12/08 02:59:48;;;;;;;;;68.00;53.50;;;;;;;;5047319;28;45333;-79
2022/12/08 03:02:13;;;;;;;;;66.50;50.50;;;;;;;;5042960;28;45340;-79
2022/12/08 03:05:00;;;;;;;;;71.75;52.75;;;;;;;;5047801;28;45292;-76
2022/12/08 03:07:37;;;;;;;;;65.00;51.33;;;;;;;;5052311;28;45447;-79
2022/12/08 03:10:03;;;;;;;;;61.50;51.50;;;;;;;;5050683;28;45628;-78
2022/12/08 03:12:35;;;;;;;;;66.00;52.50;;;;;;;;5046372;28;45503;-78
2022/12/08 03:15:03;;;;;;;;;65.50;51.25;;;;;;;;5051237;28;45208;-79
2022/12/08 03:17:30;;;;;;;;;60.75;49.25;;;;;;;;5048976;28;45344;-76
2022/12/08 03:19:56;;;;;;;;;64.00;46.00;;;;;;;;5052483;28;45601;-75
2022/12/08 03:22:24;;;;;;;;;59.50;45.50;;;;;;;;5045647;28;44685;-79
2022/12/08 03:24:49;;;;;;;;;65.50;53.25;;;;;;;;5042685;28;45213;-78
2022/12/08 03:27:19;;;;;;;;;60.25;46.00;;;;;;;;5046200;28;45317;-78
2022/12/08 03:29:49;;;;;;;;;64.00;49.00;;;;;;;;5056125;28;45406;-78
2022/12/08 03:32:33;;;;;;;;;62.25;46.25;;;;;;;;5050389;28;45277;-79
2022/12/08 03:35:00;;;;;;;;;59.50;44.25;;;;;;;;5032029;28;45467;-78
2022/12/08 03:37:27;;;;;;;;;61.75;42.75;;;;;;;;5039817;28;45467;-78
2022/12/08 03:39:52;;;;;;;;;59.75;43.00;;;;;;;;5054108;28;45403;-79
2022/12/08 03:42:17;;;;;;;;;62.00;44.50;;;;;;;;5042181;28;45182;-78
2022/12/08 03:44:42;;;;;;;;;62.75;46.50;;;;;;;;5057047;28;45206;-78
2022/12/08 03:47:07;;;;;;;;;68.50;50.75;;;;;;;;5044514;28;45069;-78
2022/12/08 03:49:33;;;;;;;;;53.25;44.00;;;;;;;;5058457;28;45215;-78
2022/12/08 03:51:58;;;;;;;;;69.25;49.00;;;;;;;;5043078;28;45213;-78
2022/12/08 03:54:23;;;;;;;;;61.25;46.75;;;;;;;;5041758;28;45226;-78
2022/12/08 03:56:48;;;;;;;;;65.00;49.00;;;;;;;;5046354;28;45384;-78
2022/12/08 03:59:13;;;;;;;;;66.50;46.50;;;;;;;;5053600;28;45254;-78
2022/12/08 04:01:39;;;;;;;;;63.00;46.00;;;;;;;;5027382;28;45294;-78
2022/12/08 04:04:04;;;;;;;;;51.50;34.50;;;;;;;;5046547;28;45305;-78
2022/12/08 04:06:29;;;;;;;;;60.50;48.75;;;;;;;;5041509;28;45281;-78
2022/12/08 04:08:54;;;;;;;;;61.50;47.00;;;;;;;;5048176;28;46675;-78
2022/12/08 04:11:20;;;;;;;;;62.00;46.50;;;;;;;;5042839;28;45312;-78
2022/12/08 04:13:45;;;;;;;;;58.00;43.25;;;;;;;;5049040;28;45255;-78
2022/12/08 04:16:18;;;;;;;;;58.50;45.25;;;;;;;;5046295;28;45418;-78
2022/12/08 04:18:44;;;;;;;;;63.00;50.00;;;;;;;;5045136;28;46146;-78
2022/12/08 04:21:09;;;;;;;;;62.25;48.50;;;;;;;;5048731;28;45362;-78
2022/12/08 04:23:35;;;;;;;;;66.00;48.75;;;;;;;;5051730;28;45313;-78
2022/12/08 04:26:00;;;;;;;;;54.50;43.50;;;;;;;;5048378;28;45393;-78
2022/12/08 04:28:25;;;;;;;;;58.00;46.25;;;;;;;;5042374;28;45587;-78
2022/12/08 04:30:50;;;;;;;;;59.00;47.00;;;;;;;;5046494;28;45390;-78
2022/12/08 04:33:16;;;;;;;;;58.50;43.25;;;;;;;;5045820;28;45317;-78
2022/12/08 04:35:41;;;;;;;;;61.00;45.00;;;;;;;;5036869;28;45511;-78
2022/12/08 04:38:06;;;;;;;;;52.50;43.75;;;;;;;;5049415;28;45442;-77
2022/12/08 04:40:32;;;;;;;;;49.75;40.50;;;;;;;;5036072;28;45341;-77
2022/12/08 04:42:57;;;;;;;;;64.50;50.00;;;;;;;;5051142;28;45493;-77
2022/12/08 04:45:22;;;;;;;;;64.75;49.50;;;;;;;;5040014;28;47395;-77
2022/12/08 04:47:48;;;;;;;;;61.75;48.75;;;;;;;;5045882;28;45316;-78
2022/12/08 04:50:13;;;;;;;;;59.25;47.00;;;;;;;;5024822;28;45371;-78
2022/12/08 04:52:38;;;;;;;;;57.00;45.00;;;;;;;;5035223;28;45242;-78
2022/12/08 04:55:04;;;;;;;;;55.25;44.25;;;;;;;;5027542;28;46245;-78
2022/12/08 04:57:29;;;;;;;;;59.25;43.00;;;;;;;;5048271;28;46043;-78
2022/12/08 04:59:54;;;;;;;;;51.25;42.50;;;;;;;;5046725;28;45218;-77
2022/12/08 05:02:19;;;;;;;;;48.25;40.25;;;;;;;;5034532;28;45300;-78
2022/12/08 05:04:44;;;;;;;;;47.25;38.00;;;;;;;;5030390;28;46410;-78
2022/12/08 05:07:10;;;;;;;;;43.75;39.25;;;;;;;;5038631;28;47558;-78
2022/12/08 05:09:35;;;;;;;;;51.00;42.00;;;;;;;;5035895;28;45309;-78
2022/12/08 05:12:00;;;;;;;;;48.25;41.25;;;;;;;;5051544;28;45356;-77
2022/12/08 05:14:25;;;;;;;;;45.75;40.25;;;;;;;;5052431;28;45509;-78
2022/12/08 05:16:50;;;;;;;;;51.50;41.25;;;;;;;;5052786;28;46043;-78
2022/12/08 05:19:16;;;;;;;;;50.00;39.00;;;;;;;;5055110;28;45278;-78
2022/12/08 05:21:41;;;;;;;;;50.50;40.50;;;;;;;;5050448;28;45362;-77
2022/12/08 05:24:06;;;;;;;;;49.00;40.75;;;;;;;;5054945;28;45250;-77
2022/12/08 05:26:31;;;;;;;;;57.50;38.50;;;;;;;;5049792;28;45246;-78
2022/12/08 05:28:57;;;;;;;;;47.00;41.00;;;;;;;;5051502;28;45356;-77
2022/12/08 05:31:22;;;;;;;;;43.75;38.50;;;;;;;;5054873;28;45365;-77
2022/12/08 05:33:48;;;;;;;;;53.00;40.75;;;;;;;;5035694;28;45186;-78
2022/12/08 05:36:14;;;;;;;;;45.25;38.25;;;;;;;;5054153;28;45384;-77
2022/12/08 05:38:39;;;;;;;;;45.25;37.50;;;;;;;;5057507;28;45234;-77
2022/12/08 05:41:05;;;;;;;;;52.25;40.25;;;;;;;;5049546;28;45364;-79
2022/12/08 05:43:30;;;;;;;;;34.50;31.50;;;;;;;;5050560;28;45301;-77
2022/12/08 05:45:56;;;;;;;;;40.00;35.75;;;;;;;;5053330;28;45328;-78
2022/12/08 05:48:21;;;;;;;;;35.25;33.50;;;;;;;;5051327;28;45268;-78
2022/12/08 05:50:46;;;;;;;;;48.25;38.25;;;;;;;;5036761;28;46296;-78
2022/12/08 05:53:12;;;;;;;;;33.00;29.25;;;;;;;;5040487;28;45305;-79
2022/12/08 05:55:37;;;;;;;;;45.75;34.25;;;;;;;;5051030;28;45459;-79
2022/12/08 05:58:02;;;;;;;;;36.25;31.75;;;;;;;;5047375;28;45397;-78
2022/12/08 06:00:27;;;;;;;;;32.25;31.25;;;;;;;;5044655;28;45237;-78
2022/12/08 06:02:52;;;;;;;;;39.50;35.25;;;;;;;;5043478;28;45484;-78
2022/12/08 06:05:18;;;;;;;;;41.25;35.25;;;;;;;;5047325;28;45309;-79
2022/12/08 06:07:43;;;;;;;;;37.50;32.25;;;;;;;;5029012;28;45432;-78
2022/12/08 06:10:08;;;;;;;;;38.25;32.75;;;;;;;;5049267;28;45246;-78
2022/12/08 06:12:33;;;;;;;;;40.25;33.25;;;;;;;;5047502;28;45361;-79
2022/12/08 06:14:59;;;;;;;;;39.75;29.50;;;;;;;;5051686;28;45242;-77
2022/12/08 06:17:24;;;;;;;;;37.75;34.00;;;;;;;;5034172;28;45340;-77
2022/12/08 06:19:49;;;;;;;;;39.25;31.00;;;;;;;;5036274;28;45548;-77
2022/12/08 06:22:14;;;;;;;;;38.25;28.75;;;;;;;;5033461;28;45718;-77
2022/12/08 06:24:39;;;;;;;;;36.25;31.00;;;;;;;;5053387;28;45198;-78
2022/12/08 06:27:05;;;;;;;;;41.50;32.25;;;;;;;;5050345;28;45218;-78
2022/12/08 06:29:30;;;;;;;;;42.25;34.75;;;;;;;;5054120;28;45320;-78
2022/12/08 06:31:55;;;;;;;;;36.25;30.75;;;;;;;;5042088;28;45205;-78
2022/12/08 06:34:20;;;;;;;;;40.00;34.25;;;;;;;;5030870;28;46862;-78
2022/12/08 06:36:45;;;;;;;;;39.75;33.00;;;;;;;;5045121;28;45209;-79
2022/12/08 06:39:11;;;;;;;;;41.50;26.75;;;;;;;;5045984;28;45143;-78
2022/12/08 06:42:42;;;;;;;;;38.00;29.00;;;;;;;;5048213;28;45519;-78
2022/12/08 06:44:21;;;;;;;;;34.50;26.75;;;;;;;;5048186;28;45454;-78
2022/12/08 06:46:46;;;;;;;;;35.25;28.50;;;;;;;;5030474;28;45320;-78
2022/12/08 06:49:12;;;;;;;;;32.75;24.75;;;;;;;;5048086;28;45586;-76
2022/12/08 06:51:37;;;;;;;;;29.00;25.50;;;;;;;;5049565;28;45187;-78
2022/12/08 06:54:02;;;;;;;;;34.00;29.75;;;;;;;;5058525;28;45383;-77
2022/12/08 06:56:28;;;;;;;;;34.00;26.25;;;;;;;;5049485;28;45818;-78
2022/12/08 06:58:54;;;;;;;;;27.50;22.75;;;;;;;;5028070;28;45306;-72
2022/12/08 07:01:19;;;;;;;;;33.00;26.50;;;;;;;;5044088;28;45096;-72
2022/12/08 07:03:45;;;;;;;;;32.25;28.50;;;;;;;;5044129;28;45347;-72
2022/12/08 07:06:14;;;;;;;;;34.50;26.75;;;;;;;;5051462;28;44790;-73
2022/12/08 07:08:40;;;;;;;;;21.50;17.00;;;;;;;;5030175;28;45188;-72
2022/12/08 07:11:06;;;;;;;;;32.50;30.25;;;;;;;;5052549;28;45309;-74
2022/12/08 07:13:32;;;;;;;;;31.75;25.25;;;;;;;;5044437;28;45293;-73
2022/12/08 07:15:57;;;;;;;;;33.50;29.50;;;;;;;;5044692;28;45292;-72
2022/12/08 07:18:22;;;;;;;;;31.00;24.25;;;;;;;;5045345;28;45210;-71
2022/12/08 07:20:47;;;;;;;;;38.50;27.50;;;;;;;;5041508;28;45583;-71
2022/12/08 07:23:13;;;;;;;;;33.25;29.50;;;;;;;;5034970;28;48147;-72
2022/12/08 07:25:38;;;;;;;;;36.00;28.75;;;;;;;;5046675;28;45320;-72
2022/12/08 07:28:07;;;;;;;;;40.75;30.75;;;;;;;;5049692;28;45215;-72
2022/12/08 07:30:32;;;;;;;;;34.50;30.00;;;;;;;;5031862;28;46513;-71
2022/12/08 07:32:57;;;;;;;;;36.25;32.00;;;;;;;;5042906;28;45496;-71
2022/12/08 07:35:22;;;;;;;;;30.50;29.25;;;;;;;;5053449;28;45309;-74
2022/12/08 07:37:47;;;;;;;;;34.25;28.50;;;;;;;;5046724;28;46002;-71
2022/12/08 07:40:14;;;;;;;;;43.00;35.25;;;;;;;;5055436;28;45475;-72
2022/12/08 07:42:39;;;;;;;;;28.25;20.50;;;;;;;;5045685;28;47348;-72
2022/12/08 07:45:04;;;;;;;;;34.75;32.75;;;;;;;;5049884;28;47736;-73
2022/12/08 07:47:30;;;;;;;;;41.50;33.50;;;;;;;;5043495;28;45367;-71
2022/12/08 07:49:55;;;;;;;;;41.75;36.00;;;;;;;;5046407;28;45303;-72
2022/12/08 07:52:20;;;;;;;;;43.75;36.75;;;;;;;;5043339;28;45431;-72
2022/12/08 07:54:46;;;;;;;;;35.00;32.25;;;;;;;;5047085;28;45298;-73
2022/12/08 07:57:11;;;;;;;;;36.75;26.50;;;;;;;;5051123;28;45423;-72
2022/12/08 07:59:36;;;;;;;;;33.75;31.50;;;;;;;;5040840;28;45393;-72
2022/12/08 08:02:01;;;;;;;;;36.00;28.75;;;;;;;;5045180;28;45222;-71
2022/12/08 08:04:26;;;;;;;;;36.75;31.75;;;;;;;;5057333;28;45430;-76
2022/12/08 08:06:52;;;;;;;;;50.50;40.00;;;;;;;;5051506;28;45348;-77
2022/12/08 08:09:17;;;;;;;;;36.75;32.00;;;;;;;;5043624;28;45265;-79
2022/12/08 08:11:42;;;;;;;;;37.75;33.25;;;;;;;;5050701;28;45590;-76
2022/12/08 08:14:07;;;;;;;;;41.25;37.50;;;;;;;;5060595;28;45235;-76
2022/12/08 08:16:33;;;;;;;;;38.25;33.00;;;;;;;;5053607;28;45340;-77
2022/12/08 08:18:58;;;;;;;;;44.25;32.50;;;;;;;;5040692;28;45574;-76
2022/12/08 08:21:23;;;;;;;;;40.75;34.25;;;;;;;;5053699;28;46169;-76
2022/12/08 08:23:48;;;;;;;;;43.50;36.50;;;;;;;;5054749;28;45372;-76
2022/12/08 08:26:13;;;;;;;;;36.25;30.00;;;;;;;;5033927;28;45557;-76
2022/12/08 08:28:39;;;;;;;;;35.25;29.00;;;;;;;;5025929;28;45480;-79
2022/12/08 08:31:04;;;;;;;;;48.75;37.50;;;;;;;;5047422;28;46619;-78
2022/12/08 08:33:30;;;;;;;;;39.50;35.25;;;;;;;;5045686;28;45435;-76
2022/12/08 08:35:55;;;;;;;;;34.75;27.50;;;;;;;;5054323;28;45665;-76
2022/12/08 08:38:20;;;;;;;;;40.75;31.25;;;;;;;;5041152;28;45464;-76
2022/12/08 08:40:46;;;;;;;;;42.25;36.00;;;;;;;;5050855;28;45507;-78
2022/12/08 08:43:27;;;;;;;;;42.75;35.75;;;;;;;;5055300;28;45380;-76
2022/12/08 08:45:54;;;;;;;;;46.50;35.50;;;;;;;;5038918;28;45421;-77
2022/12/08 08:48:19;;;;;;;;;36.75;30.75;;;;;;;;5042724;28;45251;-76
2022/12/08 08:50:44;;;;;;;;;51.00;37.75;;;;;;;;5037691;28;47138;-76
2022/12/08 08:53:09;;;;;;;;;42.75;37.50;;;;;;;;5041921;28;45269;-76
2022/12/08 08:55:37;;;;;;;;;58.75;37.75;;;;;;;;5053335;28;45527;-77
2022/12/08 08:58:02;;;;;;;;;36.50;32.75;;;;;;;;5048325;28;45487;-78
2022/12/08 09:00:27;;;;;;;;;40.00;32.25;;;;;;;;5053257;28;45364;-77
2022/12/08 09:02:53;;;;;;;;;46.50;38.00;;;;;;;;5029557;28;45442;-76
2022/12/08 09:05:18;;;;;;;;;45.00;35.75;;;;;;;;5053850;28;45317;-78
2022/12/08 09:07:43;;;;;;;;;44.00;38.00;;;;;;;;5046405;28;45436;-77
2022/12/08 09:10:08;;;;;;;;;42.75;35.50;;;;;;;;5037474;28;47157;-77
2022/12/08 09:12:34;;;;;;;;;35.00;30.25;;;;;;;;5047316;28;45461;-77
2022/12/08 09:14:59;;;;;;;;;36.00;29.50;;;;;;;;5055311;28;45263;-77
2022/12/08 09:17:24;;;;;;;;;36.25;33.25;;;;;;;;5046841;28;45357;-76
2022/12/08 09:19:49;;;;;;;;;30.75;29.25;;;;;;;;5055142;28;45316;-78
2022/12/08 09:22:15;;;;;;;;;38.75;31.00;;;;;;;;5053403;28;45471;-76
2022/12/08 09:24:40;;;;;;;;;35.50;30.25;;;;;;;;5055518;28;45237;-76
2022/12/08 09:27:05;;;;;;;;;36.25;32.50;;;;;;;;5053373;28;45278;-76
2022/12/08 09:29:30;;;;;;;;;34.75;30.50;;;;;;;;5045608;28;45386;-76
2022/12/08 09:31:56;;;;;;;;;46.00;36.75;;;;;;;;5031615;28;45902;-77
2022/12/08 09:34:21;;;;;;;;;44.50;33.00;;;;;;;;5037906;28;45383;-77
2022/12/08 09:36:46;;;;;;;;;41.75;30.75;;;;;;;;5048828;28;45352;-77
2022/12/08 09:39:11;;;;;;;;;41.50;35.75;;;;;;;;5049779;28;45527;-78
2022/12/08 09:41:36;;;;;;;;;39.50;34.25;;;;;;;;5050544;28;45198;-78
2022/12/08 09:44:11;;;;;;;;;43.50;37.50;;;;;;;;5051369;28;45155;-78
2022/12/08 09:46:36;;;;;;;;;51.25;38.00;;;;;;;;5037320;28;45287;-78
2022/12/08 09:49:02;;;;;;;;;48.75;34.00;;;;;;;;5053717;28;46288;-77
2022/12/08 09:51:34;;;;;;;;;42.50;37.50;;;;;;;;5048576;28;45217;-77
2022/12/08 09:54:06;;;;;;;;;51.50;40.00;;;;;;;;5041540;28;45443;-77
2022/12/08 09:56:34;;;;;;;;;42.50;34.75;;;;;;;;5044568;28;45457;-77
2022/12/08 09:59:00;;;;;;;;;42.75;36.00;;;;;;;;5046501;28;45246;-78
2022/12/08 10:01:27;;;;;;;;;39.50;36.25;;;;;;;;5029434;28;45282;-78
2022/12/08 10:03:54;;;;;;;;;41.50;36.00;;;;;;;;5047680;28;45290;-78
2022/12/08 10:06:26;;;;;;;;;40.00;36.00;;;;;;;;5042309;28;45484;-77
2022/12/08 10:09:10;;;;;;;;;50.00;37.25;;;;;;;;5049433;28;45693;-78
2022/12/08 10:11:41;;;;;;;;;39.00;31.75;;;;;;;;5044547;28;45412;-77
2022/12/08 10:14:22;;;;;;;;;33.75;30.25;;;;;;;;5051760;28;45250;-78
2022/12/08 10:16:48;;;;;;;;;43.00;34.75;;;;;;;;5052147;28;45408;-77
2022/12/08 10:19:24;;;;;;;;;40.25;29.75;;;;;;;;5050178;28;45284;-78
2022/12/08 10:21:49;;;;;;;;;40.00;34.50;;;;;;;;5050377;28;45218;-78
2022/12/08 10:24:21;;;;;;;;;36.75;34.00;;;;;;;;5040854;28;44790;-77
2022/12/08 10:26:46;;;;;;;;;39.75;37.25;;;;;;;;5050576;28;45355;-78
2022/12/08 10:29:12;;;;;;;;;38.25;33.50;;;;;;;;5050278;28;46660;-78
2022/12/08 10:31:37;;;;;;;;;35.00;29.50;;;;;;;;5034875;28;45289;-77
2022/12/08 10:34:13;;;;;;;;;36.50;30.75;;;;;;;;5053773;28;45249;-77
2022/12/08 10:36:49;;;;;;;;;32.75;29.50;;;;;;;;5043558;28;45341;-77
2022/12/08 10:39:31;;;;;;;;;36.50;34.75;;;;;;;;5054146;28;45235;-78
2022/12/08 10:42:20;;;;;;;;;39.50;29.00;;;;;;;;5045555;28;45233;-78
2022/12/08 10:45:04;;;;;;;;;40.25;36.50;;;;;;;;5033211;28;45348;-77
2022/12/08 10:47:34;;;;;;;;;45.25;36.50;;;;;;;;5044805;28;45431;-78
2022/12/08 10:50:17;;;;;;;;;40.00;36.75;;;;;;;;5048252;28;45388;-78
2022/12/08 10:52:42;;;;;;;;;43.00;38.50;;;;;;;;5035727;28;45221;-77
2022/12/08 10:55:18;;;;;;;;;35.50;34.75;;;;;;;;5045798;28;45394;-77
2022/12/08 10:57:43;;;;;;;;;42.00;35.50;;;;;;;;5051122;28;45460;-77
2022/12/08 11:00:13;;;;;;;;;45.00;38.25;;;;;;;;5047553;28;45350;-78
2022/12/08 11:02:50;;;;;;;;;41.50;37.25;;;;;;;;5048698;28;45187;-78
2022/12/08 11:05:17;;;;;;;;;41.25;37.00;;;;;;;;5050209;28;45535;-77
2022/12/08 11:07:46;;;;;;;;;40.25;37.00;;;;;;;;5046720;28;45522;-77
2022/12/08 11:10:19;;;;;;;;;50.25;37.25;;;;;;;;5052488;28;45530;-79
2022/12/08 11:12:44;;;;;;;;;50.75;39.75;;;;;;;;5042962;28;45423;-78
2022/12/08 11:15:14;;;;;;;;;47.25;40.00;;;;;;;;5022808;28;45510;-78
2022/12/08 11:17:39;;;;;;;;;46.50;34.00;;;;;;;;5044890;28;45376;-78
2022/12/08 11:20:05;;;;;;;;;49.00;39.00;;;;;;;;5044304;28;45337;-78
2022/12/08 11:22:31;;;;;;;;;44.25;37.25;;;;;;;;5044151;28;45345;-78
2022/12/08 11:25:15;;;;;;;;;41.75;38.50;;;;;;;;5058320;28;45449;-78
2022/12/08 11:27:42;;;;;;;;;45.50;38.50;;;;;;;;5039226;28;45407;-78
2022/12/08 11:30:34;;;;;;;;;38.00;32.75;;;;;;;;5036755;28;47837;-78
2022/12/08 11:33:00;;;;;;;;;48.50;38.75;;;;;;;;5041149;28;45279;-77
2022/12/08 11:35:28;;;;;;;;;46.25;36.75;;;;;;;;5037139;28;45497;-77
2022/12/08 11:37:55;;;;;;;;;40.75;37.75;;;;;;;;5041741;28;45437;-77
2022/12/08 11:40:33;;;;;;;;;43.50;35.00;;;;;;;;5023412;28;47385;-77
2022/12/08 11:43:01;;;;;;;;;59.75;41.25;;;;;;;;5046563;28;45496;-77
2022/12/08 11:45:29;;;;;;;;;43.50;39.50;;;;;;;;5054660;28;45822;-77
2022/12/08 11:47:54;;;;;;;;;35.00;34.75;;;;;;;;5050346;28;45599;-77
2022/12/08 11:50:21;;;;;;;;;41.50;34.50;;;;;;;;5049596;28;45375;-77
2022/12/08 11:52:48;;;;;;;;;57.50;40.50;;;;;;;;5040682;28;45287;-77
2022/12/08 11:55:32;;;;;;;;;36.75;32.00;;;;;;;;5044775;28;45716;-78
2022/12/08 11:58:02;;;;;;;;;39.75;34.75;;;;;;;;5046473;28;45270;-77
2022/12/08 12:00:27;;;;;;;;;36.50;33.00;;;;;;;;5047479;28;45247;-77
2022/12/08 12:02:59;;;;;;;;;43.75;37.00;;;;;;;;5041939;28;45316;-77
2022/12/08 12:05:33;;;;;;;;;42.00;37.00;;;;;;;;5044667;28;45375;-76
2022/12/08 12:08:12;;;;;;;;;45.25;36.00;;;;;;;;5051343;28;45277;-77
2022/12/08 12:10:38;;;;;;;;;46.50;30.25;;;;;;;;5052720;28;45690;-77
2022/12/08 12:13:24;;;;;;;;;38.75;37.00;;;;;;;;5027496;28;45370;-77
2022/12/08 12:16:12;;;;;;;;;49.50;38.25;;;;;;;;5044031;28;45428;-78
2022/12/08 12:18:46;;;;;;;;;41.50;36.25;;;;;;;;5025543;28;44969;-77
2022/12/08 12:21:18;;;;;;;;;55.50;40.00;;;;;;;;5027587;28;47822;-77
2022/12/08 12:23:47;;;;;;;;;45.00;36.75;;;;;;;;5053191;28;45364;-76
2022/12/08 12:26:18;;;;;;;;;42.75;36.25;;;;;;;;5036609;28;45269;-77
2022/12/08 12:28:48;;;;;;;;;47.00;33.75;;;;;;;;5044524;28;45266;-76
2022/12/08 12:31:18;;;;;;;;;46.50;35.25;;;;;;;;5045162;28;45404;-77
2022/12/08 12:33:45;;;;;;;;;43.25;37.50;;;;;;;;5047457;28;45528;-75
2022/12/08 12:36:11;;;;;;;;;43.00;37.50;;;;;;;;5053256;28;45348;-77
2022/12/08 12:41:24;;;;;;;;;49.50;37.25;;;;;;;;5050269;28;45473;-77
2022/12/08 12:44:07;;;;;;;;;36.00;32.50;;;;;;;;5050589;28;45229;-77
2022/12/08 12:46:35;;;;;;;;;37.50;32.75;;;;;;;;5050210;28;45434;-76
2022/12/08 12:49:36;;;;;;;;;38.25;36.00;;;;;;;;5050225;28;45711;-77
2022/12/08 12:52:01;;;;;;;;;35.75;32.50;;;;;;;;4978818;28;45438;-77
2022/12/08 12:54:28;;;;;;;;;47.50;38.75;;;;;;;;5031526;28;45315;-77
2022/12/08 12:56:54;;;;;;;;;43.00;30.75;;;;;;;;5052008;28;45590;-77
2022/12/08 12:59:34;;;;;;;;;37.75;31.50;;;;;;;;5031321;28;46063;-77
2022/12/08 13:02:01;;;;;;;;;38.00;34.00;;;;;;;;5044655;28;45119;-77
2022/12/08 13:04:35;;;;;;;;;35.75;32.25;;;;;;;;5035083;28;45303;-77
2022/12/08 13:07:00;;;;;;;;;35.00;31.75;;;;;;;;5050525;28;45405;-76
2022/12/08 13:09:29;;;;;;;;;34.75;32.25;;;;;;;;5038445;28;45270;-76
2022/12/08 13:11:56;;;;;;;;;43.50;32.25;;;;;;;;5047511;28;45570;-76
2022/12/08 13:14:29;;;;;;;;;34.50;29.50;;;;;;;;5052624;28;44857;-76
2022/12/08 13:16:56;;;;;;;;;37.50;33.50;;;;;;;;5052476;28;45261;-78
2022/12/08 13:19:21;;;;;;;;;40.75;30.25;;;;;;;;5053495;28;45495;-78
2022/12/08 13:21:46;;;;;;;;;45.00;31.25;;;;;;;;5052163;28;46750;-78
2022/12/08 13:24:18;;;;;;;;;40.00;36.00;;;;;;;;5060843;28;45360;-76
2022/12/08 13:26:47;;;;;;;;;37.75;31.75;;;;;;;;5048042;28;45407;-76
2022/12/08 13:29:21;;;;;;;;;36.75;32.00;;;;;;;;5049585;28;45369;-76
2022/12/08 13:31:56;;;;;;;;;41.00;32.75;;;;;;;;5034331;28;46699;-76
2022/12/08 13:34:22;;;;;;;;;36.75;29.50;;;;;;;;5035975;28;44926;-77
2022/12/08 13:36:56;;;;;;;;;40.25;32.75;;;;;;;;5048181;28;45252;-76
2022/12/08 13:39:28;;;;;;;;;37.50;32.75;;;;;;;;5056481;28;45491;-76
2022/12/08 13:41:58;;;;;;;;;39.75;35.00;;;;;;;;5037105;28;46776;-76
2022/12/08 13:44:43;;;;;;;;;37.75;36.00;;;;;;;;5052576;28;45449;-77
2022/12/08 13:47:18;;;;;;;;;36.75;32.75;;;;;;;;5043943;28;45587;-76
2022/12/08 13:49:53;;;;;;;;;40.75;35.25;;;;;;;;5048581;28;45483;-76
2022/12/08 13:52:30;;;;;;;;;42.50;33.00;;;;;;;;5044082;28;45145;-77
2022/12/08 13:54:55;;;;;;;;;42.00;33.75;;;;;;;;5051461;28;45352;-76
2022/12/08 13:57:29;;;;;;;;;47.75;37.00;;;;;;;;5048061;28;45391;-77
2022/12/08 13:59:58;;;;;;;;;40.75;33.50;;;;;;;;5041228;28;45297;-76
2022/12/08 14:02:27;;;;;;;;;45.50;35.50;;;;;;;;5041688;28;45304;-76
2022/12/08 14:04:53;;;;;;;;;40.00;32.50;;;;;;;;5043359;28;45355;-76
2022/12/08 14:07:18;;;;;;;;;51.00;37.00;;;;;;;;5046746;28;45487;-76
2022/12/08 14:09:44;;;;;;;;;39.00;34.75;;;;;;;;5045686;28;45297;-76
2022/12/08 14:12:12;;;;;;;;;37.00;34.25;;;;;;;;5056269;28;45525;-76
2022/12/08 14:14:40;;;;;;;;;39.00;33.50;;;;;;;;5049588;28;45297;-76
2022/12/08 14:17:09;;;;;;;;;41.00;36.00;;;;;;;;5051947;28;45575;-77
2022/12/08 14:19:34;;;;;;;;;41.25;34.50;;;;;;;;5053348;28;44804;-76
2022/12/08 14:22:13;;;;;;;;;30.75;24.75;;;;;;;;5050844;28;45301;-77
2022/12/08 14:24:38;;;;;;;;;41.00;33.00;;;;;;;;5050377;28;45175;-77
2022/12/08 14:27:07;;;;;;;;;27.50;23.75;;;;;;;;5044889;28;45379;-77
2022/12/08 14:29:36;;;;;;;;;43.50;36.50;;;;;;;;5051219;28;45146;-77